Time;durP1;ratioP1;P1;durP2;ratioP2;P2;SDS_P1;SDS_P2;PMS_P1;PMS_P2;Temp;Humidity;BMP_temperature;BMP_pressure;BME280_temperature;BME280_humidity;BME280_pressure;Samples;Min_cycle;Max_cycle;Signal;HPM_P1;HPM_P2
2021/12/29 00:02:10;;;;;;;10.32;6.07;;;9.60;99.90;;;;;;5251860;28;20077;-76
2021/12/29 00:04:41;;;;;;;12.43;6.22;;;9.70;99.90;;;;;;5251345;28;20020;-77
2021/12/29 00:07:12;;;;;;;12.38;6.07;;;9.50;99.90;;;;;;5251128;28;20106;-77
2021/12/29 00:09:43;;;;;;;9.38;5.25;;;9.60;99.90;;;;;;5251482;28;20020;-76
2021/12/29 00:12:22;;;;;;;12.75;4.88;;;9.50;99.90;;;;;;5251706;28;20115;-76
2021/12/29 00:14:54;;;;;;;14.18;4.68;;;9.50;99.90;;;;;;5251629;28;20055;-76
2021/12/29 00:17:24;;;;;;;8.63;4.60;;;9.60;99.90;;;;;;5233136;28;20480;-76
2021/12/29 00:19:55;;;;;;;9.63;4.55;;;9.70;99.90;;;;;;5251003;28;20013;-76
2021/12/29 00:22:26;;;;;;;10.07;4.85;;;9.60;99.90;;;;;;5251180;28;20033;-76
2021/12/29 00:24:57;;;;;;;12.32;5.45;;;9.70;99.90;;;;;;5250870;28;20031;-76
2021/12/29 00:27:28;;;;;;;12.63;6.10;;;9.70;99.90;;;;;;5250838;28;20033;-77
2021/12/29 00:29:58;;;;;;;11.48;4.90;;;9.60;99.90;;;;;;5251381;28;20020;-76
2021/12/29 00:32:29;;;;;;;10.00;4.38;;;9.50;99.90;;;;;;5250763;28;20028;-76
2021/12/29 00:35:00;;;;;;;11.40;5.93;;;9.50;99.90;;;;;;5250761;28;20374;-76
2021/12/29 00:37:31;;;;;;;14.25;6.25;;;9.60;99.90;;;;;;5250955;28;20032;-76
2021/12/29 00:40:03;;;;;;;11.60;6.22;;;9.60;99.90;;;;;;5250613;28;20020;-76
2021/12/29 00:46:00;;;;;;;14.43;7.45;;;9.60;99.90;;;;;;5250791;28;20032;-77
2021/12/29 00:48:36;;;;;;;12.80;7.72;;;9.70;99.90;;;;;;5250018;28;20349;-76
2021/12/29 00:51:07;;;;;;;12.75;7.10;;;9.60;99.90;;;;;;5250211;28;20169;-77
2021/12/29 00:53:39;;;;;;;16.50;7.90;;;9.70;99.90;;;;;;5250315;28;20024;-77
2021/12/29 00:56:10;;;;;;;9.40;5.20;;;9.70;99.90;;;;;;5250566;28;20526;-78
2021/12/29 00:58:41;;;;;;;11.52;6.50;;;9.70;99.90;;;;;;5250087;28;20454;-77
2021/12/29 01:01:12;;;;;;;13.50;8.07;;;9.50;99.90;;;;;;5250338;28;20024;-77
2021/12/29 01:03:43;;;;;;;19.45;11.48;;;9.70;99.90;;;;;;5250247;28;20449;-77
2021/12/29 01:06:14;;;;;;;15.55;6.38;;;9.50;99.90;;;;;;5249883;28;20041;-77
2021/12/29 01:08:45;;;;;;;16.27;6.63;;;9.50;99.90;;;;;;5248778;28;20041;-77
2021/12/29 01:11:17;;;;;;;11.07;7.55;;;9.60;99.90;;;;;;5249968;28;20052;-77
2021/12/29 01:13:49;;;;;;;16.77;8.13;;;9.50;99.90;;;;;;5250148;28;20514;-77
2021/12/29 01:19:05;;;;;;;11.25;7.00;;;9.60;99.90;;;;;;5249908;28;20024;-77
2021/12/29 01:21:39;;;;;;;10.10;5.82;;;9.60;99.90;;;;;;5249989;28;20383;-77
2021/12/29 01:24:12;;;;;;;10.30;6.95;;;9.60;99.90;;;;;;5249647;28;20048;-77
2021/12/29 01:26:43;;;;;;;13.68;6.95;;;9.60;99.90;;;;;;5249895;28;20048;-77
2021/12/29 01:29:14;;;;;;;11.63;6.65;;;9.60;99.90;;;;;;5249602;28;20020;-77
2021/12/29 01:31:46;;;;;;;13.25;7.20;;;9.70;99.90;;;;;;5249494;28;20028;-77
2021/12/29 01:34:17;;;;;;;12.88;8.05;;;9.70;99.90;;;;;;5249693;28;20122;-77
2021/12/29 01:36:48;;;;;;;9.68;7.30;;;9.70;99.90;;;;;;5248348;28;20036;-77
2021/12/29 01:39:20;;;;;;;11.20;6.78;;;9.70;99.90;;;;;;5249292;28;20033;-77
2021/12/29 01:41:54;;;;;;;10.70;6.40;;;9.70;99.90;;;;;;5249363;28;20422;-77
2021/12/29 01:44:27;;;;;;;9.73;6.53;;;9.70;99.90;;;;;;5249221;28;20028;-77
2021/12/29 01:46:59;;;;;;;14.05;8.20;;;9.70;99.90;;;;;;5249152;28;20025;-77
2021/12/29 01:49:40;;;;;;;12.48;7.50;;;9.70;99.90;;;;;;5249302;28;20029;-77
2021/12/29 01:52:21;;;;;;;10.80;7.13;;;9.70;99.90;;;;;;5248502;28;20439;-77
2021/12/29 01:54:58;;;;;;;11.70;8.13;;;9.80;99.90;;;;;;5248703;28;20431;-77
2021/12/29 01:57:37;;;;;;;14.60;7.57;;;9.70;99.90;;;;;;5249129;28;20041;-77
2021/12/29 02:00:36;;;;;;;13.90;9.70;;;9.70;99.90;;;;;;5249389;28;20028;-77
2021/12/29 02:03:08;;;;;;;14.27;8.90;;;9.70;99.90;;;;;;5248813;28;20025;-77
2021/12/29 02:05:39;;;;;;;18.98;9.98;;;9.70;99.90;;;;;;5249190;28;20040;-77
2021/12/29 02:08:11;;;;;;;8.25;4.60;;;9.60;99.90;;;;;;5248724;28;20044;-76
2021/12/29 02:10:45;;;;;;;14.07;5.95;;;9.60;99.90;;;;;;5248745;28;20036;-77
2021/12/29 02:13:16;;;;;;;10.63;7.38;;;9.70;99.90;;;;;;5248702;28;20548;-76
2021/12/29 02:15:47;;;;;;;12.35;6.82;;;9.70;99.90;;;;;;5248676;28;20103;-76
2021/12/29 02:18:20;;;;;;;12.80;7.97;;;9.70;99.90;;;;;;5249018;28;20375;-76
2021/12/29 02:20:55;;;;;;;11.35;7.78;;;9.70;99.90;;;;;;5248997;28;20490;-76
2021/12/29 02:23:34;;;;;;;13.15;8.05;;;9.80;99.90;;;;;;5248663;28;20028;-76
2021/12/29 02:26:06;;;;;;;15.15;8.55;;;9.70;99.90;;;;;;5248616;28;20030;-76
2021/12/29 02:28:41;;;;;;;15.77;8.65;;;9.70;99.90;;;;;;5248600;28;20036;-76
2021/12/29 02:31:11;;;;;;;13.85;9.70;;;9.70;99.90;;;;;;5248565;28;20024;-77
2021/12/29 02:33:42;;;;;;;13.63;9.38;;;9.80;99.90;;;;;;5248521;28;20028;-76
2021/12/29 02:36:18;;;;;;;14.30;10.57;;;9.80;99.90;;;;;;5248379;28;20068;-76
2021/12/29 02:38:53;;;;;;;14.93;8.95;;;9.70;99.90;;;;;;5248527;28;20025;-76
2021/12/29 02:41:26;;;;;;;13.23;9.18;;;9.80;99.90;;;;;;5248813;28;20371;-76
2021/12/29 02:44:00;;;;;;;19.02;10.25;;;9.80;99.90;;;;;;5248466;28;20056;-76
2021/12/29 02:46:32;;;;;;;18.55;9.82;;;9.70;99.90;;;;;;5248249;28;20426;-76
2021/12/29 02:49:03;;;;;;;14.55;8.90;;;9.70;99.90;;;;;;5248377;28;20074;-76
2021/12/29 02:51:34;;;;;;;20.38;10.88;;;9.80;99.90;;;;;;5248946;28;20382;-76
2021/12/29 02:54:05;;;;;;;16.70;9.77;;;9.80;99.90;;;;;;5248367;28;20064;-76
2021/12/29 02:56:36;;;;;;;16.48;10.52;;;9.70;99.90;;;;;;5248526;28;20036;-77
2021/12/29 02:59:07;;;;;;;14.98;9.07;;;9.70;99.90;;;;;;5248339;28;20024;-76
2021/12/29 03:01:38;;;;;;;15.82;9.45;;;9.60;99.90;;;;;;5248812;28;20028;-77
2021/12/29 03:04:10;;;;;;;17.60;9.85;;;9.60;99.90;;;;;;5248189;28;20028;-76
2021/12/29 03:06:41;;;;;;;16.67;9.00;;;9.70;99.90;;;;;;5247907;28;20048;-77
2021/12/29 03:09:13;;;;;;;20.27;9.40;;;9.70;99.90;;;;;;5248198;28;20537;-76
2021/12/29 03:11:46;;;;;;;17.25;10.40;;;9.60;99.90;;;;;;5248430;28;20024;-76
2021/12/29 03:14:17;;;;;;;17.60;10.82;;;9.60;99.90;;;;;;5248411;28;20052;-76
2021/12/29 03:16:49;;;;;;;15.43;10.35;;;9.70;99.90;;;;;;5248040;28;20116;-76
2021/12/29 03:19:19;;;;;;;15.60;7.43;;;9.70;99.90;;;;;;5248339;28;20024;-76
2021/12/29 03:21:50;;;;;;;15.85;9.02;;;9.70;99.90;;;;;;5247920;28;20020;-76
2021/12/29 03:24:21;;;;;;;16.77;10.65;;;9.70;99.90;;;;;;5248020;28;20021;-76
2021/12/29 03:26:52;;;;;;;17.90;9.57;;;9.70;99.90;;;;;;5247849;28;20471;-76
2021/12/29 03:29:23;;;;;;;16.80;10.13;;;9.70;99.90;;;;;;5246987;28;20029;-77
2021/12/29 03:31:54;;;;;;;21.15;11.88;;;9.80;99.90;;;;;;5247478;28;20578;-77
2021/12/29 03:34:25;;;;;;;17.13;11.05;;;9.80;99.90;;;;;;5247582;28;20495;-78
2021/12/29 03:36:56;;;;;;;23.42;11.43;;;9.70;99.90;;;;;;5246807;28;20040;-77
2021/12/29 03:39:27;;;;;;;24.15;11.48;;;9.80;99.90;;;;;;5228883;28;20024;-78
2021/12/29 03:41:58;;;;;;;27.00;12.55;;;9.80;99.90;;;;;;5246593;28;20025;-77
2021/12/29 03:44:29;;;;;;;21.00;12.63;;;9.80;99.90;;;;;;5246797;28;20024;-78
2021/12/29 03:47:00;;;;;;;29.92;13.57;;;9.80;99.90;;;;;;5246657;28;20032;-78
2021/12/29 03:49:30;;;;;;;27.13;15.32;;;9.90;99.90;;;;;;5246705;28;20056;-78
2021/12/29 03:52:02;;;;;;;28.05;14.77;;;9.80;99.90;;;;;;5246818;28;20024;-78
2021/12/29 03:54:33;;;;;;;29.70;14.23;;;9.80;99.90;;;;;;5246653;28;20046;-78
2021/12/29 03:57:04;;;;;;;32.88;14.80;;;9.80;99.90;;;;;;5246725;28;20040;-78
2021/12/29 03:59:35;;;;;;;31.35;16.70;;;9.70;99.90;;;;;;5248182;28;20043;-78
2021/12/29 04:02:06;;;;;;;36.05;14.43;;;9.70;99.90;;;;;;5250357;28;20213;-77
2021/12/29 04:04:37;;;;;;;29.85;14.15;;;9.60;99.90;;;;;;5250241;28;20188;-78
2021/12/29 04:07:08;;;;;;;35.25;15.93;;;9.70;99.90;;;;;;5250029;28;20530;-77
2021/12/29 04:09:39;;;;;;;33.38;16.30;;;9.70;99.90;;;;;;5251030;28;20035;-78
2021/12/29 04:12:10;;;;;;;32.17;16.60;;;9.70;99.90;;;;;;5251177;28;20027;-77
2021/12/29 04:14:41;;;;;;;40.22;16.80;;;9.80;99.90;;;;;;5249932;28;20379;-78
2021/12/29 04:17:13;;;;;;;42.80;17.67;;;9.80;99.90;;;;;;5249980;28;20047;-77
2021/12/29 04:22:33;;;;;;;32.83;15.90;;;9.80;99.90;;;;;;5248774;28;20024;-78
2021/12/29 04:25:05;;;;;;;34.88;16.52;;;9.80;99.90;;;;;;5249408;28;20463;-77
2021/12/29 04:27:36;;;;;;;35.33;16.23;;;9.80;99.90;;;;;;5248893;28;20021;-78
2021/12/29 04:30:07;;;;;;;32.40;14.75;;;9.80;99.90;;;;;;5248696;28;20028;-78
2021/12/29 04:32:38;;;;;;;40.38;17.00;;;9.70;99.90;;;;;;5246094;28;20032;-78
2021/12/29 04:35:09;;;;;;;32.88;16.83;;;9.70;99.90;;;;;;5250978;28;20038;-77
2021/12/29 04:37:40;;;;;;;29.98;15.90;;;9.60;99.90;;;;;;5250895;28;20032;-77
2021/12/29 04:40:11;;;;;;;35.92;15.70;;;9.70;99.90;;;;;;5250927;28;20016;-77
2021/12/29 04:42:42;;;;;;;29.83;15.55;;;9.70;99.90;;;;;;5250584;28;20028;-78
2021/12/29 04:45:14;;;;;;;30.50;16.45;;;9.60;99.90;;;;;;5251159;28;20571;-78
2021/12/29 04:47:48;;;;;;;38.30;16.30;;;9.80;99.90;;;;;;5250496;28;20035;-77
2021/12/29 04:50:36;;;;;;;35.38;17.05;;;9.80;99.90;;;;;;5250407;28;20024;-78
2021/12/29 04:53:09;;;;;;;32.63;16.40;;;9.80;99.90;;;;;;5250437;28;20493;-77
2021/12/29 04:55:45;;;;;;;41.85;24.05;;;9.80;99.90;;;;;;5250256;28;20033;-78
2021/12/29 04:58:21;;;;;;;45.13;25.85;;;9.80;99.90;;;;;;5250898;28;20364;-78
2021/12/29 05:00:52;;;;;;;49.83;28.83;;;9.90;99.90;;;;;;5250255;28;20028;-78
2021/12/29 05:03:23;;;;;;;49.97;34.67;;;9.90;99.90;;;;;;5250197;28;20025;-77
2021/12/29 05:08:24;;;;;;;53.97;34.33;;;9.90;99.90;;;;;;5231929;28;20164;-77
2021/12/29 05:08:45;;;;;;;47.20;26.65;;;9.90;99.90;;;;;;5249848;28;20033;-78
2021/12/29 05:11:16;;;;;;;42.20;23.48;;;9.90;99.90;;;;;;5249903;28;20529;-77
2021/12/29 05:13:48;;;;;;;48.50;23.60;;;9.90;99.90;;;;;;5249978;28;20020;-78
2021/12/29 05:16:19;;;;;;;43.72;22.33;;;9.90;99.90;;;;;;5250155;28;20380;-78
2021/12/29 05:18:50;;;;;;;50.42;25.38;;;9.90;99.90;;;;;;5249840;28;20013;-77
2021/12/29 05:21:21;;;;;;;56.22;31.13;;;9.90;99.90;;;;;;5250325;28;20032;-77
2021/12/29 05:23:54;;;;;;;52.17;25.67;;;9.90;99.90;;;;;;5249723;28;20020;-77
2021/12/29 05:26:25;;;;;;;45.03;21.80;;;9.90;99.90;;;;;;5250165;28;20031;-77
2021/12/29 05:28:55;;;;;;;37.88;19.40;;;9.80;99.90;;;;;;5249564;28;20400;-77
2021/12/29 05:31:26;;;;;;;38.72;19.42;;;9.90;99.90;;;;;;5249908;28;20025;-77
2021/12/29 05:33:58;;;;;;;27.80;12.15;;;9.90;99.90;;;;;;5249454;28;20107;-77
2021/12/29 05:36:29;;;;;;;38.40;19.17;;;10.00;99.90;;;;;;5249247;28;20040;-77
2021/12/29 05:38:59;;;;;;;36.03;22.85;;;9.90;99.90;;;;;;5249398;28;20029;-77
2021/12/29 05:41:30;;;;;;;38.72;21.73;;;9.90;99.90;;;;;;5249633;28;20060;-77
2021/12/29 05:44:01;;;;;;;38.70;25.70;;;9.90;99.90;;;;;;5249340;28;20016;-76
2021/12/29 05:46:32;;;;;;;35.33;16.55;;;9.90;99.90;;;;;;5249224;28;20029;-76
2021/12/29 05:49:03;;;;;;;32.95;17.50;;;9.90;99.90;;;;;;5231349;28;20483;-76
2021/12/29 05:51:34;;;;;;;33.58;17.70;;;9.90;99.90;;;;;;5249463;28;20033;-76
2021/12/29 05:54:05;;;;;;;31.88;20.15;;;10.00;99.90;;;;;;5249700;28;20020;-76
2021/12/29 05:56:37;;;;;;;34.63;21.25;;;10.00;99.90;;;;;;5249031;28;20039;-76
2021/12/29 05:59:08;;;;;;;33.25;19.50;;;10.00;99.90;;;;;;5230578;28;20506;-76
2021/12/29 06:01:40;;;;;;;31.70;17.77;;;10.00;99.90;;;;;;5248857;28;20025;-76
2021/12/29 06:04:11;;;;;;;31.00;16.77;;;10.00;99.90;;;;;;5249203;28;20032;-76
2021/12/29 06:06:42;;;;;;;37.05;21.08;;;10.00;99.90;;;;;;5248612;28;20045;-76
2021/12/29 06:09:14;;;;;;;45.72;24.77;;;10.10;99.90;;;;;;5248334;28;20039;-77
2021/12/29 06:11:46;;;;;;;39.13;21.13;;;10.10;99.90;;;;;;5248587;28;20021;-77
2021/12/29 06:14:17;;;;;;;36.53;20.38;;;10.00;99.90;;;;;;5247486;28;20024;-77
2021/12/29 06:16:48;;;;;;;42.03;18.77;;;10.10;99.90;;;;;;5246447;28;20033;-77
2021/12/29 06:19:19;;;;;;;54.75;18.40;;;10.10;99.90;;;;;;5247315;28;20021;-77
2021/12/29 06:21:50;;;;;;;55.22;18.92;;;10.10;99.90;;;;;;5229039;28;20086;-77
2021/12/29 06:24:21;;;;;;;54.63;21.50;;;10.00;99.90;;;;;;5248655;28;20063;-78
2021/12/29 06:26:51;;;;;;;76.45;23.52;;;10.10;99.90;;;;;;5248793;28;20372;-76
2021/12/29 06:29:22;;;;;;;66.25;24.15;;;10.00;99.90;;;;;;5249113;28;20027;-77
2021/12/29 06:31:53;;;;;;;45.05;19.63;;;10.10;99.90;;;;;;5248803;28;20498;-77
2021/12/29 06:34:24;;;;;;;52.70;22.27;;;10.10;99.90;;;;;;5248460;28;20024;-75
2021/12/29 06:36:55;;;;;;;69.97;22.73;;;10.10;99.90;;;;;;5248502;28;20070;-76
2021/12/29 06:39:26;;;;;;;48.60;18.08;;;10.10;99.90;;;;;;5248942;28;20471;-76
2021/12/29 06:41:57;;;;;;;65.68;21.10;;;10.10;99.90;;;;;;5248727;28;20040;-77
2021/12/29 06:44:27;;;;;;;83.55;20.52;;;10.10;99.90;;;;;;5248602;28;20043;-80
2021/12/29 06:46:58;;;;;;;56.63;18.90;;;10.10;99.90;;;;;;5248576;28;20025;-77
2021/12/29 06:49:29;;;;;;;72.25;21.45;;;10.20;99.90;;;;;;5248585;28;20021;-79
2021/12/29 06:52:02;;;;;;;84.70;26.20;;;10.10;99.90;;;;;;5248326;28;20368;-79
2021/12/29 06:54:34;;;;;;;61.95;23.67;;;10.10;99.90;;;;;;5248344;28;20017;-79
2021/12/29 06:57:05;;;;;;;63.72;25.98;;;10.10;99.90;;;;;;5248118;28;20032;-79
2021/12/29 06:59:36;;;;;;;62.90;23.67;;;10.10;99.90;;;;;;5248383;28;20017;-79
2021/12/29 07:02:06;;;;;;;48.20;21.42;;;10.20;99.90;;;;;;5247475;28;20032;-78
2021/12/29 07:04:38;;;;;;;56.13;20.52;;;10.20;99.90;;;;;;5248021;28;20090;-78
2021/12/29 07:07:08;;;;;;;54.70;19.58;;;10.20;99.90;;;;;;5248147;28;20132;-77
2021/12/29 07:09:39;;;;;;;47.78;19.67;;;10.20;99.90;;;;;;5248482;28;20107;-77
2021/12/29 07:12:10;;;;;;;57.80;19.23;;;10.30;99.90;;;;;;5248509;28;20368;-77
2021/12/29 07:14:41;;;;;;;49.55;18.40;;;10.30;99.90;;;;;;5248223;28;20025;-77
2021/12/29 07:17:12;;;;;;;51.47;19.88;;;10.30;99.90;;;;;;5248185;28;20154;-77
2021/12/29 07:19:43;;;;;;;61.67;24.40;;;10.40;99.90;;;;;;5248320;28;20356;-77
2021/12/29 07:22:14;;;;;;;55.15;22.90;;;10.40;99.90;;;;;;5248264;28;20400;-78
2021/12/29 07:24:45;;;;;;;43.28;21.25;;;10.40;99.90;;;;;;5248104;28;20032;-77
2021/12/29 07:27:16;;;;;;;54.20;23.70;;;10.50;99.90;;;;;;5248208;28;20025;-77
2021/12/29 07:29:47;;;;;;;48.28;22.77;;;10.50;99.90;;;;;;5248057;28;20368;-77
2021/12/29 07:32:18;;;;;;;49.17;24.38;;;10.50;99.90;;;;;;5247967;28;20052;-77
2021/12/29 07:34:49;;;;;;;56.38;25.10;;;10.50;99.90;;;;;;5250000;28;20032;-78
2021/12/29 07:37:20;;;;;;;42.30;22.02;;;10.50;99.90;;;;;;5251787;28;20048;-77
2021/12/29 07:39:51;;;;;;;37.15;21.80;;;10.60;99.90;;;;;;5251880;28;20056;-77
2021/12/29 07:42:21;;;;;;;45.92;21.20;;;10.50;99.90;;;;;;5251850;28;20107;-78
2021/12/29 07:44:52;;;;;;;40.67;22.35;;;10.50;99.90;;;;;;5251723;28;20099;-76
2021/12/29 07:47:23;;;;;;;41.30;25.27;;;10.50;99.90;;;;;;5251582;28;20031;-77
2021/12/29 07:49:54;;;;;;;41.83;23.05;;;10.60;99.90;;;;;;5251753;28;20024;-76
2021/12/29 07:52:25;;;;;;;33.90;20.75;;;10.70;99.90;;;;;;5250824;28;20025;-78
2021/12/29 07:54:56;;;;;;;35.83;20.42;;;10.80;99.90;;;;;;5251653;28;20042;-77
2021/12/29 07:57:27;;;;;;;39.03;21.95;;;10.70;99.90;;;;;;5251587;28;20033;-77
2021/12/29 07:59:57;;;;;;;36.65;18.77;;;10.70;99.90;;;;;;5251287;28;20456;-77
2021/12/29 08:02:28;;;;;;;40.65;22.48;;;10.70;99.90;;;;;;5251259;28;20028;-77
2021/12/29 08:04:59;;;;;;;35.70;21.50;;;10.80;99.90;;;;;;5251024;28;20127;-77
2021/12/29 08:07:30;;;;;;;38.35;21.40;;;10.80;99.90;;;;;;5249654;28;20083;-76
2021/12/29 08:10:03;;;;;;;28.48;19.05;;;10.90;99.90;;;;;;5232016;28;20036;-79
2021/12/29 08:12:34;;;;;;;29.48;18.20;;;11.00;99.90;;;;;;5250338;28;20380;-76
2021/12/29 08:15:05;;;;;;;30.70;17.70;;;10.90;99.90;;;;;;5251236;28;20035;-77
2021/12/29 08:17:36;;;;;;;28.65;16.73;;;11.00;99.90;;;;;;5232769;28;20039;-77
2021/12/29 08:20:09;;;;;;;26.42;16.35;;;10.90;99.90;;;;;;5248618;28;20029;-76
2021/12/29 08:22:40;;;;;;;28.60;17.60;;;10.80;99.90;;;;;;5248620;28;20029;-77
2021/12/29 08:25:11;;;;;;;27.80;17.65;;;10.90;99.90;;;;;;5248844;28;20020;-77
2021/12/29 08:27:41;;;;;;;29.85;17.55;;;11.00;99.90;;;;;;5248614;28;20074;-77
2021/12/29 08:30:13;;;;;;;30.45;18.08;;;11.00;99.90;;;;;;5230817;28;20470;-77
2021/12/29 08:32:44;;;;;;;28.40;16.92;;;11.10;99.90;;;;;;5230776;28;20383;-78
2021/12/29 08:35:15;;;;;;;28.55;17.60;;;11.10;99.90;;;;;;5248603;28;20017;-77
2021/12/29 08:37:47;;;;;;;30.13;18.38;;;11.10;99.90;;;;;;5248789;28;20472;-78
2021/12/29 08:40:17;;;;;;;32.25;19.52;;;11.10;99.90;;;;;;5248646;28;20612;-77
2021/12/29 08:42:48;;;;;;;27.25;17.45;;;11.20;99.90;;;;;;5248731;28;20021;-75
2021/12/29 08:45:21;;;;;;;27.95;16.67;;;11.20;99.90;;;;;;5247998;28;20027;-77
2021/12/29 08:47:55;;;;;;;27.73;15.52;;;11.20;99.90;;;;;;5248763;28;20592;-77
2021/12/29 08:50:29;;;;;;;28.50;16.05;;;11.30;99.90;;;;;;5248168;28;20387;-78
2021/12/29 08:53:03;;;;;;;24.65;16.42;;;11.30;99.90;;;;;;5248337;28;20027;-77
2021/12/29 08:55:36;;;;;;;31.00;16.98;;;11.20;99.90;;;;;;5248263;28;20032;-76
2021/12/29 08:58:07;;;;;;;34.92;18.65;;;11.30;99.90;;;;;;5248138;28;20032;-75
2021/12/29 09:00:39;;;;;;;30.70;18.20;;;11.30;99.90;;;;;;5248019;28;20155;-75
2021/12/29 09:03:10;;;;;;;30.85;19.13;;;11.40;99.90;;;;;;5248053;28;20036;-76
2021/12/29 09:05:41;;;;;;;32.00;16.67;;;11.50;99.90;;;;;;5247985;28;20059;-75
2021/12/29 09:08:12;;;;;;;39.28;19.63;;;11.80;99.90;;;;;;5247894;28;20549;-75
2021/12/29 09:10:44;;;;;;;29.90;18.13;;;11.60;99.90;;;;;;5247889;28;20050;-75
2021/12/29 09:13:15;;;;;;;26.67;16.48;;;11.80;99.90;;;;;;5247818;28;20133;-75
2021/12/29 09:15:49;;;;;;;31.35;17.83;;;12.00;99.90;;;;;;5247688;28;20036;-75
2021/12/29 09:18:21;;;;;;;25.52;16.23;;;11.90;99.90;;;;;;5247806;28;20475;-74
2021/12/29 09:20:53;;;;;;;32.97;20.45;;;12.20;99.90;;;;;;5247609;28;20482;-76
2021/12/29 09:23:24;;;;;;;30.60;18.90;;;12.10;99.90;;;;;;5247442;28;20077;-74
2021/12/29 09:25:55;;;;;;;35.42;19.35;;;12.00;99.90;;;;;;5247676;28;20485;-74
2021/12/29 09:28:26;;;;;;;39.75;19.83;;;12.10;99.90;;;;;;5247556;28;20031;-75
2021/12/29 09:30:57;;;;;;;35.05;20.52;;;12.10;99.90;;;;;;5247523;28;20028;-75
2021/12/29 09:33:29;;;;;;;32.67;20.17;;;12.30;99.90;;;;;;5247331;28;20045;-76
2021/12/29 09:36:03;;;;;;;38.10;20.83;;;12.30;99.90;;;;;;5247483;28;20480;-75
2021/12/29 09:38:36;;;;;;;29.65;18.55;;;12.10;99.90;;;;;;5247661;28;20051;-76
2021/12/29 09:41:13;;;;;;;39.75;19.77;;;12.20;99.90;;;;;;5247461;28;20028;-77
2021/12/29 09:43:47;;;;;;;31.58;19.38;;;12.30;99.90;;;;;;5247679;28;20032;-78
2021/12/29 09:46:18;;;;;;;36.25;20.05;;;12.20;99.90;;;;;;5247673;28;20028;-78
2021/12/29 09:48:51;;;;;;;37.88;21.63;;;12.10;99.90;;;;;;5246941;28;20023;-75
2021/12/29 09:51:22;;;;;;;40.88;22.02;;;12.10;99.90;;;;;;5247143;28;20017;-76
2021/12/29 09:53:53;;;;;;;37.72;21.95;;;12.10;99.90;;;;;;5247293;28;20021;-77
2021/12/29 09:56:26;;;;;;;37.10;21.17;;;12.10;99.90;;;;;;5246576;28;20028;-76
2021/12/29 09:58:59;;;;;;;34.38;20.95;;;12.10;99.90;;;;;;5229156;28;20028;-76
2021/12/29 10:01:30;;;;;;;36.75;21.88;;;12.20;99.90;;;;;;5247141;28;20467;-76
2021/12/29 10:04:01;;;;;;;39.38;21.60;;;12.20;99.90;;;;;;5246888;28;20023;-77
2021/12/29 10:06:32;;;;;;;38.60;19.92;;;12.20;99.90;;;;;;5246685;28;20053;-77
2021/12/29 10:09:14;;;;;;;38.95;21.10;;;12.40;99.90;;;;;;5247060;28;20475;-76
2021/12/29 10:11:47;;;;;;;36.17;20.50;;;12.50;99.90;;;;;;5244237;28;20028;-78
2021/12/29 10:14:18;;;;;;;35.28;20.73;;;12.50;99.90;;;;;;5246320;28;20039;-77
2021/12/29 10:16:50;;;;;;;37.97;20.13;;;12.50;99.90;;;;;;5244029;28;20058;-78
2021/12/29 10:19:21;;;;;;;34.30;19.52;;;12.60;99.90;;;;;;5246685;28;20150;-78
2021/12/29 10:21:52;;;;;;;38.15;20.17;;;12.60;99.90;;;;;;5246748;28;20099;-76
2021/12/29 10:24:23;;;;;;;34.83;19.90;;;12.70;99.90;;;;;;5246731;28;20020;-77
2021/12/29 10:26:57;;;;;;;35.20;20.20;;;12.90;99.90;;;;;;5246894;28;20013;-78
2021/12/29 10:29:28;;;;;;;33.28;21.17;;;12.90;99.90;;;;;;5246620;28;20028;-78
2021/12/29 10:32:04;;;;;;;35.13;20.02;;;12.90;99.90;;;;;;5246507;28;20083;-78
2021/12/29 10:37:08;;;;;;;35.45;21.40;;;12.90;99.90;;;;;;5247332;28;20049;-77
2021/12/29 10:39:44;;;;;;;33.40;20.65;;;13.00;99.90;;;;;;5230625;28;20052;-78
2021/12/29 10:42:23;;;;;;;40.13;21.08;;;13.10;99.90;;;;;;5248580;28;20028;-80
2021/12/29 10:45:00;;;;;;;33.50;19.92;;;12.90;99.90;;;;;;5248298;28;20036;-80
2021/12/29 10:47:34;;;;;;;32.75;19.27;;;13.40;99.90;;;;;;5248578;28;20020;-82
2021/12/29 10:50:13;;;;;;;28.55;19.15;;;14.20;99.90;;;;;;5248665;28;20031;-79
2021/12/29 10:52:50;;;;;;;29.52;17.58;;;15.20;99.90;;;;;;5248476;28;20024;-79
2021/12/29 10:55:31;;;;;;;28.73;17.00;;;15.40;99.90;;;;;;5230405;28;20155;-80
2021/12/29 10:58:09;;;;;;;28.13;16.02;;;14.70;99.90;;;;;;5248455;28;20024;-78
2021/12/29 11:00:44;;;;;;;32.83;16.80;;;14.20;99.90;;;;;;5230456;28;20036;-76
2021/12/29 11:03:19;;;;;;;28.15;17.08;;;14.30;99.90;;;;;;5248230;28;20021;-76
2021/12/29 11:05:58;;;;;;;34.95;18.83;;;14.00;99.90;;;;;;5248238;28;20063;-76
2021/12/29 11:08:32;;;;;;;23.90;14.30;;;13.90;99.90;;;;;;5231694;28;20193;-76
2021/12/29 11:11:06;;;;;;;33.90;18.58;;;13.70;99.90;;;;;;5252511;28;20032;-77
2021/12/29 11:13:38;;;;;;;26.02;15.07;;;13.80;99.90;;;;;;5251555;28;20029;-77
2021/12/29 11:16:09;;;;;;;29.70;16.42;;;13.90;99.90;;;;;;5233118;28;20403;-78
2021/12/29 11:18:51;;;;;;;27.75;16.65;;;14.10;99.90;;;;;;5252430;28;20024;-80
2021/12/29 11:21:26;;;;;;;28.83;16.95;;;14.10;99.90;;;;;;5252356;28;20410;-78
2021/12/29 11:24:09;;;;;;;13.90;8.30;;;14.00;99.90;;;;;;5252342;28;20028;-77
2021/12/29 11:26:41;;;;;;;15.60;7.88;;;14.10;99.90;;;;;;5250926;28;20036;-77
2021/12/29 11:29:18;;;;;;;17.75;8.90;;;14.10;99.90;;;;;;5250689;28;20028;-77
2021/12/29 11:32:00;;;;;;;14.82;8.10;;;14.00;99.90;;;;;;5250142;28;20456;-77
2021/12/29 11:34:31;;;;;;;13.80;7.47;;;14.10;99.90;;;;;;5251323;28;20029;-76
2021/12/29 11:37:13;;;;;;;14.18;7.97;;;14.10;99.90;;;;;;5250836;28;20036;-79
2021/12/29 11:39:46;;;;;;;14.38;7.97;;;14.10;99.90;;;;;;5247986;28;20029;-75
2021/12/29 11:42:17;;;;;;;15.80;7.32;;;14.00;99.90;;;;;;5232842;28;20047;-76
2021/12/29 11:44:48;;;;;;;14.93;7.18;;;14.10;99.90;;;;;;5250970;28;20036;-77
2021/12/29 11:47:20;;;;;;;10.85;5.85;;;14.10;99.90;;;;;;5249949;28;20021;-78
2021/12/29 11:49:51;;;;;;;25.17;11.27;;;14.10;99.90;;;;;;5250751;28;20099;-77
2021/12/29 11:52:49;;;;;;;29.02;15.10;;;14.00;99.90;;;;;;5250351;28;20096;-78
2021/12/29 11:55:26;;;;;;;8.25;4.20;;;14.00;99.90;;;;;;5250580;28;20051;-79
2021/12/29 11:58:18;;;;;;;14.27;5.88;;;13.90;99.90;;;;;;5250147;28;20157;-79
2021/12/29 12:01:02;;;;;;;7.85;3.70;;;13.80;99.90;;;;;;5251060;28;20009;-77
2021/12/29 12:03:52;;;;;;;7.63;4.07;;;13.70;99.90;;;;;;5247609;28;20466;-77
2021/12/29 12:06:43;;;;;;;9.77;4.55;;;13.70;99.90;;;;;;5250213;28;20070;-80
2021/12/29 12:09:17;;;;;;;5.20;2.95;;;13.60;99.90;;;;;;5250350;28;20104;-78
2021/12/29 12:12:02;;;;;;;10.35;3.88;;;13.60;99.90;;;;;;5250046;28;20396;-80
2021/12/29 12:14:36;;;;;;;8.20;4.63;;;13.60;99.90;;;;;;5250132;28;20039;-78
2021/12/29 12:17:11;;;;;;;15.23;9.07;;;13.40;99.90;;;;;;5249808;28;20086;-77
2021/12/29 12:19:43;;;;;;;8.90;4.47;;;13.40;99.90;;;;;;5248969;28;20020;-80
2021/12/29 12:22:16;;;;;;;10.95;4.40;;;13.30;99.90;;;;;;5249978;28;20040;-77
2021/12/29 12:24:50;;;;;;;10.50;3.90;;;13.30;99.90;;;;;;5249683;28;20372;-79
2021/12/29 12:27:36;;;;;;;9.45;4.45;;;13.30;99.90;;;;;;5250004;28;20029;-77
2021/12/29 12:30:18;;;;;;;8.15;4.03;;;13.20;99.90;;;;;;5249957;28;20028;-78
2021/12/29 12:32:51;;;;;;;15.73;9.05;;;13.20;99.90;;;;;;5249847;28;20016;-78
2021/12/29 12:35:32;;;;;;;11.50;5.47;;;13.10;99.90;;;;;;5249642;28;20038;-78
2021/12/29 12:38:27;;;;;;;9.25;4.88;;;13.20;99.90;;;;;;5248578;28;20047;-76
2021/12/29 12:41:13;;;;;;;26.80;15.68;;;13.10;99.90;;;;;;5247539;28;20078;-77
2021/12/29 12:43:57;;;;;;;8.55;3.65;;;13.00;99.90;;;;;;5248707;28;20489;-78
2021/12/29 12:46:36;;;;;;;11.15;4.15;;;12.90;99.90;;;;;;5247720;28;20032;-78
2021/12/29 12:49:22;;;;;;;10.05;4.57;;;13.10;99.90;;;;;;5248480;28;20020;-75
2021/12/29 12:52:00;;;;;;;9.35;4.00;;;13.20;99.90;;;;;;5248328;28;20032;-77
2021/12/29 12:54:37;;;;;;;9.27;3.85;;;13.10;99.90;;;;;;5248208;28;20082;-78
2021/12/29 12:57:08;;;;;;;8.85;4.68;;;13.10;99.90;;;;;;5248189;28;20066;-78
2021/12/29 12:59:44;;;;;;;9.40;4.50;;;13.00;99.90;;;;;;5247891;28;20039;-77
2021/12/29 13:02:18;;;;;;;8.85;3.83;;;12.90;99.90;;;;;;5246179;28;20040;-77
2021/12/29 13:05:11;;;;;;;9.13;4.05;;;12.90;99.90;;;;;;5247277;28;20035;-78
2021/12/29 13:07:45;;;;;;;7.28;3.70;;;13.00;99.90;;;;;;5244282;28;20063;-78
2021/12/29 13:10:28;;;;;;;12.85;4.75;;;12.90;99.90;;;;;;5247287;28;20492;-78
2021/12/29 13:13:10;;;;;;;8.93;3.95;;;13.00;99.90;;;;;;5247019;28;20028;-77
2021/12/29 13:15:48;;;;;;;14.25;4.88;;;12.90;99.90;;;;;;5247199;28;20028;-77
2021/12/29 13:18:20;;;;;;;19.17;11.05;;;12.80;99.90;;;;;;5228469;28;20032;-78